sensor_id;sensor_type;location;lat;lon;timestamp;P1;durP1;ratioP1;P2;durP2;ratioP2
37019;SDS011;22932;52.442;16.896;2022-07-29T12:50:08;1.70;;;1.50;;
37019;SDS011;22932;52.442;16.896;2022-07-29T12:52:40;3.00;;;1.60;;
37019;SDS011;22932;52.442;16.896;2022-07-29T12:55:10;2.00;;;1.80;;
37019;SDS011;22932;52.442;16.896;2022-07-29T12:57:46;3.90;;;1.70;;
37019;SDS011;22932;52.442;16.896;2022-07-29T13:00:22;2.70;;;1.50;;
37019;SDS011;22932;52.442;16.896;2022-07-29T13:02:55;1.50;;;1.40;;
37019;SDS011;22932;52.442;16.896;2022-07-29T13:05:31;3.20;;;1.70;;
37019;SDS011;22932;52.442;16.896;2022-07-29T13:08:12;3.70;;;1.70;;
37019;SDS011;22932;52.442;16.896;2022-07-29T13:10:42;1.80;;;1.60;;
37019;SDS011;22932;52.442;16.896;2022-07-29T13:13:12;4.50;;;1.70;;
37019;SDS011;22932;52.442;16.896;2022-07-29T13:15:42;8.70;;;2.00;;
37019;SDS011;22932;52.442;16.896;2022-07-29T13:18:29;3.20;;;1.60;;
37019;SDS011;22932;52.442;16.896;2022-07-29T13:21:09;3.50;;;1.60;;
37019;SDS011;22932;52.442;16.896;2022-07-29T13:23:39;4.00;;;1.70;;
37019;SDS011;22932;52.442;16.896;2022-07-29T13:26:10;4.20;;;1.70;;
37019;SDS011;22932;52.442;16.896;2022-07-29T13:28:39;2.60;;;1.70;;
37019;SDS011;22932;52.442;16.896;2022-07-29T13:31:08;2.60;;;1.40;;
37019;SDS011;22932;52.442;16.896;2022-07-29T13:33:38;2.10;;;1.60;;
37019;SDS011;22932;52.442;16.896;2022-07-29T13:36:08;6.10;;;1.50;;
37019;SDS011;22932;52.442;16.896;2022-07-29T13:38:37;5.00;;;1.90;;
37019;SDS011;22932;52.442;16.896;2022-07-29T13:41:06;1.90;;;1.40;;
37019;SDS011;22932;52.442;16.896;2022-07-29T13:43:36;3.90;;;2.10;;
37019;SDS011;22932;52.442;16.896;2022-07-29T13:46:05;2.10;;;1.80;;
37019;SDS011;22932;52.442;16.896;2022-07-29T13:48:34;6.60;;;2.10;;
37019;SDS011;22932;52.442;16.896;2022-07-29T13:51:03;3.10;;;1.90;;
37019;SDS011;22932;52.442;16.896;2022-07-29T13:53:33;2.60;;;1.40;;
37019;SDS011;22932;52.442;16.896;2022-07-29T13:56:02;2.20;;;1.90;;
37019;SDS011;22932;52.442;16.896;2022-07-29T13:58:33;3.30;;;1.60;;
37019;SDS011;22932;52.442;16.896;2022-07-29T14:01:02;2.80;;;1.80;;
37019;SDS011;22932;52.442;16.896;2022-07-29T14:03:32;2.60;;;1.60;;
37019;SDS011;22932;52.442;16.896;2022-07-29T14:06:03;3.30;;;1.80;;
37019;SDS011;22932;52.442;16.896;2022-07-29T14:08:32;1.60;;;1.40;;
37019;SDS011;22932;52.442;16.896;2022-07-29T14:11:01;4.00;;;2.30;;
37019;SDS011;22932;52.442;16.896;2022-07-29T14:13:31;6.50;;;1.50;;
37019;SDS011;22932;52.442;16.896;2022-07-29T14:16:00;2.30;;;1.70;;
37019;SDS011;22932;52.442;16.896;2022-07-29T14:18:29;5.40;;;2.20;;
37019;SDS011;22932;52.442;16.896;2022-07-29T14:20:58;1.90;;;1.40;;
37019;SDS011;22932;52.442;16.896;2022-07-29T14:23:28;3.10;;;1.50;;
37019;SDS011;22932;52.442;16.896;2022-07-29T14:25:57;6.90;;;1.70;;
37019;SDS011;22932;52.442;16.896;2022-07-29T14:28:27;3.00;;;1.80;;
37019;SDS011;22932;52.442;16.896;2022-07-29T14:30:56;4.60;;;2.00;;
37019;SDS011;22932;52.442;16.896;2022-07-29T14:33:26;3.50;;;1.90;;
37019;SDS011;22932;52.442;16.896;2022-07-29T14:35:55;4.20;;;2.10;;
37019;SDS011;22932;52.442;16.896;2022-07-29T14:38:24;3.40;;;1.60;;
37019;SDS011;22932;52.442;16.896;2022-07-29T14:40:53;2.80;;;1.60;;
37019;SDS011;22932;52.442;16.896;2022-07-29T14:43:23;5.50;;;1.80;;
37019;SDS011;22932;52.442;16.896;2022-07-29T14:45:52;3.10;;;1.70;;
37019;SDS011;22932;52.442;16.896;2022-07-29T14:48:21;1.80;;;1.30;;
37019;SDS011;22932;52.442;16.896;2022-07-29T14:50:50;3.90;;;1.70;;
37019;SDS011;22932;52.442;16.896;2022-07-29T14:53:21;5.20;;;1.90;;
37019;SDS011;22932;52.442;16.896;2022-07-29T14:55:50;6.50;;;1.70;;
37019;SDS011;22932;52.442;16.896;2022-07-29T14:58:20;2.50;;;1.90;;
37019;SDS011;22932;52.442;16.896;2022-07-29T15:00:49;4.10;;;1.90;;
37019;SDS011;22932;52.442;16.896;2022-07-29T15:03:18;3.40;;;1.80;;
37019;SDS011;22932;52.442;16.896;2022-07-29T15:05:49;5.90;;;2.00;;
37019;SDS011;22932;52.442;16.896;2022-07-29T15:08:19;1.50;;;1.40;;
37019;SDS011;22932;52.442;16.896;2022-07-29T15:13:17;2.30;;;1.80;;
37019;SDS011;22932;52.442;16.896;2022-07-29T15:15:46;3.60;;;1.90;;
37019;SDS011;22932;52.442;16.896;2022-07-29T15:18:16;3.20;;;1.80;;
37019;SDS011;22932;52.442;16.896;2022-07-29T15:20:45;2.10;;;1.30;;
37019;SDS011;22932;52.442;16.896;2022-07-29T15:23:15;3.30;;;1.60;;
37019;SDS011;22932;52.442;16.896;2022-07-29T15:25:44;5.30;;;1.70;;
37019;SDS011;22932;52.442;16.896;2022-07-29T15:28:13;7.10;;;1.50;;
37019;SDS011;22932;52.442;16.896;2022-07-29T15:30:42;2.70;;;1.60;;
37019;SDS011;22932;52.442;16.896;2022-07-29T15:33:12;2.90;;;1.60;;
37019;SDS011;22932;52.442;16.896;2022-07-29T15:35:41;1.60;;;1.40;;
37019;SDS011;22932;52.442;16.896;2022-07-29T15:38:10;6.10;;;1.50;;
37019;SDS011;22932;52.442;16.896;2022-07-29T15:40:40;1.30;;;1.20;;
37019;SDS011;22932;52.442;16.896;2022-07-29T15:43:10;2.40;;;2.20;;
37019;SDS011;22932;52.442;16.896;2022-07-29T15:45:39;3.20;;;1.40;;
37019;SDS011;22932;52.442;16.896;2022-07-29T15:48:31;4.60;;;1.60;;
37019;SDS011;22932;52.442;16.896;2022-07-29T15:51:02;3.60;;;1.60;;
37019;SDS011;22932;52.442;16.896;2022-07-29T15:53:31;3.10;;;1.40;;
37019;SDS011;22932;52.442;16.896;2022-07-29T15:56:01;4.00;;;1.50;;
37019;SDS011;22932;52.442;16.896;2022-07-29T15:58:30;1.60;;;1.50;;
37019;SDS011;22932;52.442;16.896;2022-07-29T16:01:00;3.70;;;1.50;;
37019;SDS011;22932;52.442;16.896;2022-07-29T16:03:29;2.50;;;1.60;;
37019;SDS011;22932;52.442;16.896;2022-07-29T16:05:58;3.20;;;1.70;;
37019;SDS011;22932;52.442;16.896;2022-07-29T16:08:28;1.90;;;1.70;;
37019;SDS011;22932;52.442;16.896;2022-07-29T16:10:57;2.00;;;1.60;;
37019;SDS011;22932;52.442;16.896;2022-07-29T16:13:26;1.50;;;1.40;;
37019;SDS011;22932;52.442;16.896;2022-07-29T16:15:56;2.40;;;1.70;;
37019;SDS011;22932;52.442;16.896;2022-07-29T16:18:25;5.10;;;1.80;;
37019;SDS011;22932;52.442;16.896;2022-07-29T16:20:54;2.00;;;1.80;;
37019;SDS011;22932;52.442;16.896;2022-07-29T16:23:23;2.30;;;1.40;;
37019;SDS011;22932;52.442;16.896;2022-07-29T16:25:53;3.10;;;1.50;;
37019;SDS011;22932;52.442;16.896;2022-07-29T16:28:22;3.00;;;1.70;;
37019;SDS011;22932;52.442;16.896;2022-07-29T16:30:51;2.80;;;1.30;;
37019;SDS011;22932;52.442;16.896;2022-07-29T16:33:20;2.40;;;1.80;;
37019;SDS011;22932;52.442;16.896;2022-07-29T16:35:50;2.10;;;1.50;;
37019;SDS011;22932;52.442;16.896;2022-07-29T16:38:19;2.70;;;1.70;;
37019;SDS011;22932;52.442;16.896;2022-07-29T16:40:49;2.00;;;1.20;;
37019;SDS011;22932;52.442;16.896;2022-07-29T16:43:18;3.00;;;1.40;;
37019;SDS011;22932;52.442;16.896;2022-07-29T16:45:47;1.70;;;1.30;;
37019;SDS011;22932;52.442;16.896;2022-07-29T16:48:16;1.40;;;1.30;;
37019;SDS011;22932;52.442;16.896;2022-07-29T16:50:45;3.40;;;1.50;;
37019;SDS011;22932;52.442;16.896;2022-07-29T16:53:15;4.50;;;1.40;;
37019;SDS011;22932;52.442;16.896;2022-07-29T16:55:44;2.80;;;1.80;;
37019;SDS011;22932;52.442;16.896;2022-07-29T16:58:13;8.70;;;1.40;;
37019;SDS011;22932;52.442;16.896;2022-07-29T17:00:43;3.20;;;1.60;;
37019;SDS011;22932;52.442;16.896;2022-07-29T17:03:13;3.30;;;1.70;;
37019;SDS011;22932;52.442;16.896;2022-07-29T17:05:42;2.90;;;1.90;;
37019;SDS011;22932;52.442;16.896;2022-07-29T17:08:11;5.30;;;1.50;;
37019;SDS011;22932;52.442;16.896;2022-07-29T17:10:40;1.60;;;1.40;;
37019;SDS011;22932;52.442;16.896;2022-07-29T17:13:10;1.70;;;1.50;;
37019;SDS011;22932;52.442;16.896;2022-07-29T17:15:39;3.70;;;1.60;;
37019;SDS011;22932;52.442;16.896;2022-07-29T17:18:09;2.90;;;1.50;;
37019;SDS011;22932;52.442;16.896;2022-07-29T17:20:39;3.80;;;1.80;;
37019;SDS011;22932;52.442;16.896;2022-07-29T17:23:08;6.70;;;1.60;;
37019;SDS011;22932;52.442;16.896;2022-07-29T17:25:37;1.90;;;1.50;;
37019;SDS011;22932;52.442;16.896;2022-07-29T17:28:07;6.10;;;1.80;;
37019;SDS011;22932;52.442;16.896;2022-07-29T17:30:36;3.10;;;1.90;;
37019;SDS011;22932;52.442;16.896;2022-07-29T17:33:05;4.40;;;1.30;;
37019;SDS011;22932;52.442;16.896;2022-07-29T17:35:34;1.60;;;1.30;;
37019;SDS011;22932;52.442;16.896;2022-07-29T17:38:21;2.80;;;1.30;;
37019;SDS011;22932;52.442;16.896;2022-07-29T17:40:50;2.90;;;1.70;;
37019;SDS011;22932;52.442;16.896;2022-07-29T17:43:20;5.60;;;1.60;;
37019;SDS011;22932;52.442;16.896;2022-07-29T17:45:49;5.50;;;1.60;;
37019;SDS011;22932;52.442;16.896;2022-07-29T17:48:18;5.30;;;1.90;;
37019;SDS011;22932;52.442;16.896;2022-07-29T17:50:47;5.60;;;1.60;;
37019;SDS011;22932;52.442;16.896;2022-07-29T17:53:17;6.50;;;1.60;;
37019;SDS011;22932;52.442;16.896;2022-07-29T17:55:46;6.00;;;1.70;;
37019;SDS011;22932;52.442;16.896;2022-07-29T17:58:16;3.90;;;1.50;;
37019;SDS011;22932;52.442;16.896;2022-07-29T18:00:46;1.60;;;1.40;;
37019;SDS011;22932;52.442;16.896;2022-07-29T18:03:15;5.30;;;1.80;;
37019;SDS011;22932;52.442;16.896;2022-07-29T18:05:45;2.40;;;1.70;;
37019;SDS011;22932;52.442;16.896;2022-07-29T18:08:14;1.70;;;1.20;;
37019;SDS011;22932;52.442;16.896;2022-07-29T18:10:44;7.40;;;1.70;;
37019;SDS011;22932;52.442;16.896;2022-07-29T18:13:13;2.60;;;1.70;;
37019;SDS011;22932;52.442;16.896;2022-07-29T18:15:43;7.20;;;1.40;;
37019;SDS011;22932;52.442;16.896;2022-07-29T18:18:13;5.40;;;1.50;;
37019;SDS011;22932;52.442;16.896;2022-07-29T18:20:44;5.70;;;1.50;;
37019;SDS011;22932;52.442;16.896;2022-07-29T18:25:42;3.80;;;1.70;;
37019;SDS011;22932;52.442;16.896;2022-07-29T18:28:11;2.30;;;1.80;;
37019;SDS011;22932;52.442;16.896;2022-07-29T18:30:40;6.50;;;1.90;;
37019;SDS011;22932;52.442;16.896;2022-07-29T18:33:11;2.60;;;1.50;;
37019;SDS011;22932;52.442;16.896;2022-07-29T18:35:42;5.10;;;1.90;;
37019;SDS011;22932;52.442;16.896;2022-07-29T18:38:12;3.70;;;1.80;;
37019;SDS011;22932;52.442;16.896;2022-07-29T18:40:42;6.70;;;1.80;;
37019;SDS011;22932;52.442;16.896;2022-07-29T18:43:11;4.90;;;2.10;;
37019;SDS011;22932;52.442;16.896;2022-07-29T18:45:41;6.30;;;2.30;;
37019;SDS011;22932;52.442;16.896;2022-07-29T18:48:10;3.10;;;2.40;;
37019;SDS011;22932;52.442;16.896;2022-07-29T18:50:40;3.20;;;1.70;;
37019;SDS011;22932;52.442;16.896;2022-07-29T18:53:09;3.50;;;2.10;;
37019;SDS011;22932;52.442;16.896;2022-07-29T18:55:38;4.00;;;1.80;;
37019;SDS011;22932;52.442;16.896;2022-07-29T18:58:08;4.20;;;1.70;;
37019;SDS011;22932;52.442;16.896;2022-07-29T19:00:37;4.40;;;1.80;;
37019;SDS011;22932;52.442;16.896;2022-07-29T19:03:06;3.10;;;1.90;;
37019;SDS011;22932;52.442;16.896;2022-07-29T19:05:36;5.60;;;2.00;;
37019;SDS011;22932;52.442;16.896;2022-07-29T19:08:05;3.40;;;1.70;;
37019;SDS011;22932;52.442;16.896;2022-07-29T19:10:35;6.80;;;2.10;;
37019;SDS011;22932;52.442;16.896;2022-07-29T19:13:04;2.70;;;1.90;;
37019;SDS011;22932;52.442;16.896;2022-07-29T19:15:34;6.00;;;2.40;;
37019;SDS011;22932;52.442;16.896;2022-07-29T19:18:03;5.90;;;2.10;;
37019;SDS011;22932;52.442;16.896;2022-07-29T19:20:32;4.60;;;2.50;;
37019;SDS011;22932;52.442;16.896;2022-07-29T19:23:03;3.00;;;2.00;;
37019;SDS011;22932;52.442;16.896;2022-07-29T19:25:34;4.60;;;2.40;;
37019;SDS011;22932;52.442;16.896;2022-07-29T19:28:03;4.20;;;2.80;;
37019;SDS011;22932;52.442;16.896;2022-07-29T19:30:33;3.20;;;2.10;;
37019;SDS011;22932;52.442;16.896;2022-07-29T19:33:02;9.80;;;3.40;;
37019;SDS011;22932;52.442;16.896;2022-07-29T19:35:31;2.40;;;2.20;;
37019;SDS011;22932;52.442;16.896;2022-07-29T19:38:01;6.70;;;2.60;;
37019;SDS011;22932;52.442;16.896;2022-07-29T19:40:31;4.10;;;2.50;;
37019;SDS011;22932;52.442;16.896;2022-07-29T19:43:00;4.70;;;2.70;;
37019;SDS011;22932;52.442;16.896;2022-07-29T19:45:30;4.90;;;2.80;;
37019;SDS011;22932;52.442;16.896;2022-07-29T19:47:59;2.20;;;1.60;;
37019;SDS011;22932;52.442;16.896;2022-07-29T19:50:30;6.50;;;2.30;;
37019;SDS011;22932;52.442;16.896;2022-07-29T19:53:00;3.20;;;2.90;;
37019;SDS011;22932;52.442;16.896;2022-07-29T19:55:29;3.80;;;2.20;;
37019;SDS011;22932;52.442;16.896;2022-07-29T19:57:58;6.10;;;2.10;;
37019;SDS011;22932;52.442;16.896;2022-07-29T20:00:29;4.10;;;2.00;;
37019;SDS011;22932;52.442;16.896;2022-07-29T20:02:59;2.80;;;2.10;;
37019;SDS011;22932;52.442;16.896;2022-07-29T20:05:30;2.20;;;1.80;;
37019;SDS011;22932;52.442;16.896;2022-07-29T20:07:59;4.10;;;2.10;;
37019;SDS011;22932;52.442;16.896;2022-07-29T20:10:30;5.40;;;2.20;;
37019;SDS011;22932;52.442;16.896;2022-07-29T20:12:59;7.10;;;2.70;;
37019;SDS011;22932;52.442;16.896;2022-07-29T20:15:29;8.60;;;2.00;;
37019;SDS011;22932;52.442;16.896;2022-07-29T20:17:58;8.30;;;2.10;;
37019;SDS011;22932;52.442;16.896;2022-07-29T20:20:27;7.30;;;2.20;;
37019;SDS011;22932;52.442;16.896;2022-07-29T20:22:57;4.10;;;2.40;;
37019;SDS011;22932;52.442;16.896;2022-07-29T20:25:27;8.60;;;2.60;;
37019;SDS011;22932;52.442;16.896;2022-07-29T20:27:57;2.20;;;2.00;;
37019;SDS011;22932;52.442;16.896;2022-07-29T20:30:26;1.80;;;1.60;;
37019;SDS011;22932;52.442;16.896;2022-07-29T20:32:55;4.50;;;2.20;;
37019;SDS011;22932;52.442;16.896;2022-07-29T20:35:24;5.10;;;2.20;;
37019;SDS011;22932;52.442;16.896;2022-07-29T20:37:54;3.80;;;2.50;;
37019;SDS011;22932;52.442;16.896;2022-07-29T20:40:24;3.60;;;2.20;;
37019;SDS011;22932;52.442;16.896;2022-07-29T20:42:54;3.50;;;2.50;;
37019;SDS011;22932;52.442;16.896;2022-07-29T20:45:24;2.70;;;2.10;;
37019;SDS011;22932;52.442;16.896;2022-07-29T20:47:53;8.40;;;5.00;;
37019;SDS011;22932;52.442;16.896;2022-07-29T20:50:23;5.70;;;3.10;;
37019;SDS011;22932;52.442;16.896;2022-07-29T20:52:53;4.20;;;2.20;;
37019;SDS011;22932;52.442;16.896;2022-07-29T20:55:23;9.90;;;2.30;;
37019;SDS011;22932;52.442;16.896;2022-07-29T20:57:52;8.40;;;2.40;;
37019;SDS011;22932;52.442;16.896;2022-07-29T21:00:22;3.30;;;2.20;;
37019;SDS011;22932;52.442;16.896;2022-07-29T21:02:51;6.80;;;1.80;;
37019;SDS011;22932;52.442;16.896;2022-07-29T21:05:20;5.10;;;2.00;;
37019;SDS011;22932;52.442;16.896;2022-07-29T21:07:50;4.10;;;1.70;;
37019;SDS011;22932;52.442;16.896;2022-07-29T21:10:19;5.30;;;2.40;;
37019;SDS011;22932;52.442;16.896;2022-07-29T21:12:48;6.40;;;2.00;;
37019;SDS011;22932;52.442;16.896;2022-07-29T21:15:18;2.90;;;2.00;;
37019;SDS011;22932;52.442;16.896;2022-07-29T21:17:47;4.80;;;2.10;;
37019;SDS011;22932;52.442;16.896;2022-07-29T21:20:25;4.40;;;2.20;;
37019;SDS011;22932;52.442;16.896;2022-07-29T21:22:55;3.80;;;2.10;;
37019;SDS011;22932;52.442;16.896;2022-07-29T21:25:25;4.00;;;2.30;;
37019;SDS011;22932;52.442;16.896;2022-07-29T21:27:54;5.20;;;2.40;;
37019;SDS011;22932;52.442;16.896;2022-07-29T21:30:41;3.80;;;2.10;;
37019;SDS011;22932;52.442;16.896;2022-07-29T21:33:10;7.00;;;2.10;;
37019;SDS011;22932;52.442;16.896;2022-07-29T21:35:40;3.80;;;1.70;;
37019;SDS011;22932;52.442;16.896;2022-07-29T21:38:09;3.60;;;2.30;;
37019;SDS011;22932;52.442;16.896;2022-07-29T21:40:41;2.00;;;1.90;;
37019;SDS011;22932;52.442;16.896;2022-07-29T21:43:11;2.40;;;2.20;;
37019;SDS011;22932;52.442;16.896;2022-07-29T21:48:12;2.40;;;2.10;;
37019;SDS011;22932;52.442;16.896;2022-07-29T21:50:42;3.60;;;2.10;;
37019;SDS011;22932;52.442;16.896;2022-07-29T21:53:11;3.40;;;2.20;;
37019;SDS011;22932;52.442;16.896;2022-07-29T21:55:41;4.70;;;2.30;;
37019;SDS011;22932;52.442;16.896;2022-07-29T21:58:11;4.30;;;2.90;;
37019;SDS011;22932;52.442;16.896;2022-07-29T22:00:41;4.30;;;2.40;;
37019;SDS011;22932;52.442;16.896;2022-07-29T22:03:11;3.20;;;2.10;;
37019;SDS011;22932;52.442;16.896;2022-07-29T22:05:41;2.60;;;2.00;;
37019;SDS011;22932;52.442;16.896;2022-07-29T22:08:10;2.00;;;1.90;;
37019;SDS011;22932;52.442;16.896;2022-07-29T22:10:40;5.90;;;2.10;;
37019;SDS011;22932;52.442;16.896;2022-07-29T22:13:09;7.80;;;1.90;;
37019;SDS011;22932;52.442;16.896;2022-07-29T22:15:38;6.90;;;1.80;;
37019;SDS011;22932;52.442;16.896;2022-07-29T22:18:08;4.10;;;1.90;;
37019;SDS011;22932;52.442;16.896;2022-07-29T22:20:37;2.10;;;1.40;;
37019;SDS011;22932;52.442;16.896;2022-07-29T22:23:06;8.10;;;2.10;;
37019;SDS011;22932;52.442;16.896;2022-07-29T22:25:35;4.50;;;1.40;;
37019;SDS011;22932;52.442;16.896;2022-07-29T22:28:05;4.20;;;1.40;;
37019;SDS011;22932;52.442;16.896;2022-07-29T22:30:34;5.00;;;1.40;;
37019;SDS011;22932;52.442;16.896;2022-07-29T22:33:03;1.80;;;1.40;;
37019;SDS011;22932;52.442;16.896;2022-07-29T22:35:32;5.40;;;1.90;;
37019;SDS011;22932;52.442;16.896;2022-07-29T22:38:02;1.80;;;1.70;;
37019;SDS011;22932;52.442;16.896;2022-07-29T22:40:31;2.70;;;1.20;;
37019;SDS011;22932;52.442;16.896;2022-07-29T22:43:00;3.60;;;1.60;;
37019;SDS011;22932;52.442;16.896;2022-07-29T22:45:30;4.40;;;1.70;;
37019;SDS011;22932;52.442;16.896;2022-07-29T22:47:59;1.50;;;1.00;;
37019;SDS011;22932;52.442;16.896;2022-07-29T22:50:28;1.80;;;1.30;;
37019;SDS011;22932;52.442;16.896;2022-07-29T22:52:58;5.70;;;1.00;;
37019;SDS011;22932;52.442;16.896;2022-07-29T22:55:27;1.20;;;1.10;;
37019;SDS011;22932;52.442;16.896;2022-07-29T22:57:56;3.10;;;1.20;;
37019;SDS011;22932;52.442;16.896;2022-07-29T23:00:25;1.80;;;1.10;;
37019;SDS011;22932;52.442;16.896;2022-07-29T23:02:55;3.20;;;1.40;;
37019;SDS011;22932;52.442;16.896;2022-07-29T23:05:24;4.30;;;1.00;;
37019;SDS011;22932;52.442;16.896;2022-07-29T23:07:54;1.80;;;1.10;;
37019;SDS011;22932;52.442;16.896;2022-07-29T23:10:23;1.10;;;0.90;;
37019;SDS011;22932;52.442;16.896;2022-07-29T23:12:52;2.50;;;1.10;;
37019;SDS011;22932;52.442;16.896;2022-07-29T23:15:21;2.70;;;1.20;;
37019;SDS011;22932;52.442;16.896;2022-07-29T23:17:51;3.50;;;1.30;;
37019;SDS011;22932;52.442;16.896;2022-07-29T23:20:20;1.30;;;1.10;;
37019;SDS011;22932;52.442;16.896;2022-07-29T23:22:49;2.50;;;1.10;;
37019;SDS011;22932;52.442;16.896;2022-07-29T23:25:18;3.80;;;0.90;;
37019;SDS011;22932;52.442;16.896;2022-07-29T23:27:48;2.00;;;1.10;;
37019;SDS011;22932;52.442;16.896;2022-07-29T23:30:17;1.20;;;1.00;;
37019;SDS011;22932;52.442;16.896;2022-07-29T23:32:46;4.00;;;1.10;;
37019;SDS011;22932;52.442;16.896;2022-07-29T23:35:16;1.40;;;1.10;;
37019;SDS011;22932;52.442;16.896;2022-07-29T23:37:45;2.70;;;1.10;;
37019;SDS011;22932;52.442;16.896;2022-07-29T23:40:15;1.80;;;1.00;;
37019;SDS011;22932;52.442;16.896;2022-07-29T23:42:44;5.10;;;1.30;;
37019;SDS011;22932;52.442;16.896;2022-07-29T23:45:13;1.60;;;1.00;;
37019;SDS011;22932;52.442;16.896;2022-07-29T23:47:43;1.80;;;1.60;;
37019;SDS011;22932;52.442;16.896;2022-07-29T23:50:12;1.40;;;1.10;;
37019;SDS011;22932;52.442;16.896;2022-07-29T23:52:42;3.40;;;1.10;;
37019;SDS011;22932;52.442;16.896;2022-07-29T23:55:12;1.60;;;0.90;;
37019;SDS011;22932;52.442;16.896;2022-07-29T23:57:41;4.30;;;1.20;;
